LRTR/TSR METAR and TAF weather

Enter ICAO airport designator
Station Type Date Time Source
LRTR METAR 2018/12/17 17:00 UTC NOAA

LRTR 171700Z 32007KT 4000 BR BKN008 M02/M02 Q1024 R11/190095 BECMG 3000 BR


Station Type Date Time Source
LRTR Decoded METAR 2018/12/17 17:00 UTC NOAA

Timisoara, Romania (LRTR) 45-46N 021-15E 88M
Dec 17, 2018 - 12:00 PM EST / 2018.12.17 1700 UTC
Wind: from the NW (320 degrees) at 8 MPH (7 KT):0
Visibility: 2 mile(s):0
Sky conditions: mostly cloudy
Weather: mist
Temperature: 28 F (-2 C)
Windchill: 19 F (-7 C):1
Dew Point: 28 F (-2 C)
Relative Humidity: 100%
Pressure (altimeter): 30.24 in. Hg (1024 hPa)
ob: LRTR 171700Z 32007KT 4000 BR BKN008 M02/M02 Q1024 R11/190095 BECMG 3000 BR
cycle: 17

Station Type Date Time Source
LRTR TAF 2018/12/17 12:33 UTC NOAA

TAF LRTR 171100Z 1712/1812 34006KT 3000 BR BKN005
BECMG 1712/1714 5000 SCT005 BKN010
TEMPO 1714/1723 1500 -SN BR BKN005 BKN025
BECMG 1723/1801 1500 BR BKN005
BECMG 1802/1804 0600 FZFG OVC002 PROB40
TEMPO 1804/1807 0350 FZFG OVC001
BECMG 1808/1810 3000 BR BKN005 BKN010
BECMG 1810/1812 5000 SCT005 BKN010


Example: see airport list